In Rescue
 
Open Full Screen Window  High Contrast Mode
March 04, 2021 9:50 AM GMT
Weather Information
Wind Direction
  ---
Wind Speed
  00 kt (0 mph)
Wind Gust
  00 kt (0 mph)
Altimeter
29.87 in
Visibility
10 SM
Temperature
02° C
36° F
Dewpoint
00° C
32° F
Humidity
87%
Sky Condition
Overcast @ 4,500 ft
Scattered @ 3,500 ft
VFR

METAR K22N 040950Z AUTO 00000KT 10SM SCT035 OVC045 02/00 A2987 RMK AO2

FAA Disclaimer: The data displayed is for advisory purposes only and is not to be used for flight planning or operations.